Time;durP1;ratioP1;P1;durP2;ratioP2;P2;SDS_P1;SDS_P2;PMS_P1;PMS_P2;Temp;Humidity;BMP_temperature;BMP_pressure;BME280_temperature;BME280_humidity;BME280_pressure;Samples;Min_cycle;Max_cycle;Signal;HPM_P1;HPM_P2
2021/04/05 00:00:48;;;;;;;36.67;20.17;;;6.00;99.90;;;;;;5133045;27;20833;-65
2021/04/05 00:03:15;;;;;;;36.43;19.67;;;6.00;99.90;;;;;;5133090;27;20439;-65
2021/04/05 00:05:41;;;;;;;35.60;21.17;;;6.10;99.90;;;;;;5132046;27;20531;-66
2021/04/05 00:08:08;;;;;;;31.93;19.67;;;6.10;99.90;;;;;;5131057;27;20505;-65
2021/04/05 00:10:38;;;;;;;36.73;18.93;;;6.10;99.90;;;;;;5132587;27;20452;-65
2021/04/05 00:13:07;;;;;;;29.47;17.23;;;6.10;99.90;;;;;;5133059;27;20451;-65
2021/04/05 00:15:34;;;;;;;31.90;19.70;;;6.00;99.90;;;;;;5132983;27;20854;-65
2021/04/05 00:18:01;;;;;;;35.33;19.30;;;6.00;99.90;;;;;;5132592;27;20459;-65
2021/04/05 00:20:31;;;;;;;32.30;17.60;;;6.00;99.90;;;;;;5133054;27;20553;-65
2021/04/05 00:22:57;;;;;;;31.70;18.60;;;6.00;99.90;;;;;;5132492;27;20456;-65
2021/04/05 00:25:25;;;;;;;28.87;17.80;;;6.00;99.90;;;;;;5132543;27;20451;-64
2021/04/05 00:27:51;;;;;;;36.27;19.37;;;6.00;99.90;;;;;;5132831;27;20499;-66
2021/04/05 00:30:22;;;;;;;32.60;18.13;;;6.00;99.90;;;;;;5133082;27;20483;-65
2021/04/05 00:32:49;;;;;;;36.07;18.90;;;6.00;99.90;;;;;;5132564;27;20444;-65
2021/04/05 00:35:18;;;;;;;32.00;17.90;;;6.00;99.90;;;;;;5132962;27;20514;-65
2021/04/05 00:37:44;;;;;;;29.23;18.00;;;6.00;99.90;;;;;;5132403;27;20538;-65
2021/04/05 00:40:14;;;;;;;34.90;21.30;;;6.00;99.90;;;;;;5132500;27;20448;-65
2021/04/05 00:42:43;;;;;;;30.93;18.00;;;6.00;99.90;;;;;;5132390;28;21084;-65
2021/04/05 00:45:13;;;;;;;34.70;18.27;;;6.00;99.90;;;;;;5132784;27;20447;-65
2021/04/05 00:47:40;;;;;;;34.57;20.10;;;6.00;99.90;;;;;;5132314;27;20424;-65
2021/04/05 00:50:09;;;;;;;29.93;17.50;;;6.00;99.90;;;;;;5132576;27;20527;-65
2021/04/05 00:52:37;;;;;;;32.67;17.17;;;6.00;99.90;;;;;;5132569;27;20427;-65
2021/04/05 00:55:04;;;;;;;37.13;19.13;;;6.00;99.90;;;;;;5132675;27;20470;-65
2021/04/05 00:57:31;;;;;;;30.60;18.47;;;5.90;99.90;;;;;;5131054;28;20456;-65
2021/04/05 00:59:57;;;;;;;33.07;19.40;;;5.90;99.90;;;;;;5132907;28;20535;-65
2021/04/05 01:02:24;;;;;;;34.87;18.80;;;5.90;99.90;;;;;;5132119;28;20484;-65
2021/04/05 01:04:50;;;;;;;31.67;19.50;;;5.90;99.90;;;;;;5132702;27;20801;-65
2021/04/05 01:07:16;;;;;;;29.90;18.10;;;5.90;99.90;;;;;;5132120;27;20963;-65
2021/04/05 01:09:44;;;;;;;34.33;19.43;;;5.90;99.90;;;;;;5132985;27;20450;-65
2021/04/05 01:12:11;;;;;;;36.80;19.27;;;5.90;99.90;;;;;;5132357;28;20948;-65
2021/04/05 01:14:37;;;;;;;36.90;20.53;;;5.90;99.90;;;;;;5132263;28;20819;-64
2021/04/05 01:17:04;;;;;;;36.00;20.23;;;5.90;99.90;;;;;;5133235;27;20464;-65
2021/04/05 01:19:31;;;;;;;34.33;19.00;;;5.90;99.90;;;;;;5136555;27;20502;-65
2021/04/05 01:21:58;;;;;;;33.20;18.80;;;5.80;99.90;;;;;;5136161;27;20566;-65
2021/04/05 01:24:26;;;;;;;30.90;18.27;;;5.90;99.90;;;;;;5136468;27;20438;-64
2021/04/05 01:26:53;;;;;;;40.30;19.37;;;5.80;99.90;;;;;;5135839;27;20442;-66
2021/04/05 01:29:19;;;;;;;33.60;19.03;;;5.90;99.90;;;;;;5136400;27;20446;-65
2021/04/05 01:31:46;;;;;;;35.37;20.80;;;5.90;99.90;;;;;;5135404;27;20458;-65
2021/04/05 01:34:12;;;;;;;41.50;21.23;;;5.80;99.90;;;;;;5136196;27;20448;-65
2021/04/05 01:36:38;;;;;;;35.83;20.97;;;5.80;99.90;;;;;;5135829;27;20440;-65
2021/04/05 01:39:06;;;;;;;38.30;19.40;;;5.80;99.90;;;;;;5135767;27;20472;-64
2021/04/05 01:41:32;;;;;;;30.53;17.80;;;5.80;99.90;;;;;;5135899;27;20487;-65
2021/04/05 01:43:59;;;;;;;31.80;18.63;;;5.80;99.90;;;;;;5128248;27;20443;-65
2021/04/05 01:46:29;;;;;;;31.80;18.53;;;5.80;99.90;;;;;;5131463;27;20534;-65
2021/04/05 01:48:59;;;;;;;28.90;18.30;;;5.80;99.90;;;;;;5132414;27;20453;-66
2021/04/05 01:51:25;;;;;;;35.13;19.77;;;5.70;99.90;;;;;;5132538;27;20458;-65
2021/04/05 01:53:53;;;;;;;35.53;18.60;;;5.70;99.90;;;;;;5135200;27;20475;-66
2021/04/05 01:56:21;;;;;;;37.07;17.63;;;5.60;99.90;;;;;;5135369;27;20479;-65
2021/04/05 01:58:49;;;;;;;32.10;18.60;;;5.60;99.90;;;;;;5135135;27;20465;-65
2021/04/05 02:01:18;;;;;;;32.87;18.23;;;5.60;99.90;;;;;;5135339;27;20489;-65
2021/04/05 02:03:46;;;;;;;38.93;18.83;;;5.60;99.90;;;;;;5135092;27;20484;-64
2021/04/05 02:06:14;;;;;;;30.97;18.07;;;5.60;99.90;;;;;;5134939;27;20446;-66
2021/04/05 02:08:42;;;;;;;30.77;18.67;;;5.60;99.90;;;;;;5135116;27;21047;-65
2021/04/05 02:11:11;;;;;;;31.30;17.90;;;5.60;99.90;;;;;;5133435;27;21074;-66
2021/04/05 02:13:39;;;;;;;32.60;17.70;;;5.60;99.90;;;;;;5133719;27;20510;-65
2021/04/05 02:16:06;;;;;;;31.50;18.53;;;5.60;99.90;;;;;;5134690;27;20441;-66
2021/04/05 02:18:33;;;;;;;37.87;18.83;;;5.70;99.90;;;;;;5135245;27;20826;-65
2021/04/05 02:21:00;;;;;;;34.00;16.77;;;5.70;99.90;;;;;;5134593;27;20976;-65
2021/04/05 02:23:27;;;;;;;30.63;17.93;;;5.60;99.90;;;;;;5134780;27;20551;-65
2021/04/05 02:26:09;;;;;;;36.17;19.63;;;5.60;99.90;;;;;;5134273;27;20454;-65
2021/04/05 02:28:41;;;;;;;35.23;19.03;;;5.70;99.90;;;;;;5134530;27;20529;-65
2021/04/05 02:31:09;;;;;;;35.53;18.90;;;5.60;99.90;;;;;;5134696;27;20422;-65
2021/04/05 02:33:37;;;;;;;33.90;18.30;;;5.60;99.90;;;;;;5135031;27;20432;-64
2021/04/05 02:36:07;;;;;;;30.80;16.37;;;5.60;99.90;;;;;;5134203;27;20450;-65
2021/04/05 02:38:35;;;;;;;35.70;18.37;;;5.60;99.90;;;;;;5134477;27;20504;-65
2021/04/05 02:41:02;;;;;;;34.70;17.70;;;5.70;99.90;;;;;;5134424;27;20538;-65
2021/04/05 02:43:29;;;;;;;34.03;17.67;;;5.70;99.90;;;;;;5135004;27;20529;-65
2021/04/05 02:45:56;;;;;;;45.87;19.00;;;5.70;99.90;;;;;;5133988;27;20443;-65
2021/04/05 02:48:23;;;;;;;30.30;18.63;;;5.70;99.90;;;;;;5134418;27;20487;-65
2021/04/05 02:50:51;;;;;;;37.70;19.13;;;5.80;99.90;;;;;;5134296;27;20420;-65
2021/04/05 02:53:18;;;;;;;28.03;15.67;;;5.80;99.90;;;;;;5134902;27;20447;-65
2021/04/05 02:55:44;;;;;;;33.60;17.77;;;5.80;99.90;;;;;;5133834;27;20444;-64
2021/04/05 02:58:11;;;;;;;33.83;18.07;;;5.80;99.90;;;;;;5134236;27;20586;-65
2021/04/05 03:00:38;;;;;;;34.73;18.90;;;5.80;99.90;;;;;;5134297;27;20484;-65
2021/04/05 03:03:06;;;;;;;34.23;17.67;;;5.90;99.90;;;;;;5134285;27;20953;-65
2021/04/05 03:05:33;;;;;;;37.37;19.60;;;6.00;99.90;;;;;;5133527;27;20523;-64
2021/04/05 03:07:59;;;;;;;40.93;18.20;;;6.10;99.90;;;;;;5134393;27;20451;-65
2021/04/05 03:10:29;;;;;;;38.40;17.80;;;6.20;99.90;;;;;;5133733;27;20480;-67
2021/04/05 03:12:59;;;;;;;32.83;17.83;;;6.30;99.90;;;;;;5134328;27;20449;-64
2021/04/05 03:15:27;;;;;;;37.27;20.20;;;6.30;99.90;;;;;;5133294;27;20447;-66
2021/04/05 03:17:58;;;;;;;35.33;17.60;;;6.40;99.90;;;;;;5133877;27;20471;-66
2021/04/05 03:20:28;;;;;;;31.33;17.60;;;6.50;99.90;;;;;;5146497;27;20446;-65
2021/04/05 03:22:55;;;;;;;34.67;18.20;;;6.50;99.90;;;;;;5154690;27;20470;-65
2021/04/05 03:25:23;;;;;;;38.97;18.80;;;6.60;99.90;;;;;;5134309;27;20603;-65
2021/04/05 03:27:50;;;;;;;31.50;18.93;;;6.60;99.90;;;;;;5133400;27;20448;-65
2021/04/05 03:30:21;;;;;;;38.70;18.30;;;6.60;99.90;;;;;;5133982;27;20919;-65
2021/04/05 03:32:53;;;;;;;36.13;19.57;;;6.60;99.90;;;;;;5133872;27;20444;-66
2021/04/05 03:35:29;;;;;;;37.07;19.67;;;6.70;99.90;;;;;;5134406;27;20464;-65
2021/04/05 03:37:57;;;;;;;39.57;20.53;;;6.70;99.90;;;;;;5133344;27;20530;-66
2021/04/05 03:40:24;;;;;;;33.27;18.50;;;6.60;99.90;;;;;;5132818;27;20580;-64
2021/04/05 03:42:56;;;;;;;38.47;19.83;;;6.70;99.90;;;;;;5133549;27;21119;-64
2021/04/05 03:45:28;;;;;;;31.43;18.70;;;6.70;99.90;;;;;;5133088;27;20498;-65
2021/04/05 03:48:15;;;;;;;32.13;19.03;;;6.70;99.90;;;;;;5133737;27;20447;-65
2021/04/05 03:50:47;;;;;;;36.20;19.23;;;6.70;99.90;;;;;;5132104;27;20454;-64
2021/04/05 03:53:21;;;;;;;37.73;20.10;;;6.70;99.90;;;;;;5133556;27;20487;-66
2021/04/05 03:55:53;;;;;;;37.17;19.10;;;6.80;99.90;;;;;;5133001;27;20456;-65
2021/04/05 03:58:22;;;;;;;34.27;19.47;;;6.70;99.90;;;;;;5132968;27;20449;-66
2021/04/05 04:00:49;;;;;;;38.13;19.30;;;6.70;99.90;;;;;;5132736;27;20562;-65
2021/04/05 04:03:22;;;;;;;34.20;18.07;;;6.80;99.90;;;;;;5132813;27;20454;-65
2021/04/05 04:05:54;;;;;;;32.80;19.83;;;6.80;99.90;;;;;;5133057;27;20553;-65
2021/04/05 04:08:28;;;;;;;35.53;18.50;;;6.80;99.90;;;;;;5132738;27;20455;-66
2021/04/05 04:10:59;;;;;;;41.17;18.40;;;6.80;99.90;;;;;;5133429;27;20538;-65
2021/04/05 04:13:28;;;;;;;32.43;17.20;;;6.80;99.90;;;;;;5131421;27;20885;-64
2021/04/05 04:15:56;;;;;;;36.07;16.83;;;6.70;99.90;;;;;;5131951;27;20443;-65
2021/04/05 04:18:23;;;;;;;33.57;17.13;;;6.80;99.90;;;;;;5130851;27;20469;-65
2021/04/05 04:20:51;;;;;;;38.00;17.60;;;6.80;99.90;;;;;;5132524;27;20489;-64
2021/04/05 04:23:17;;;;;;;33.37;18.30;;;6.90;99.90;;;;;;5133020;27;20443;-64
2021/04/05 04:25:44;;;;;;;33.40;17.90;;;6.80;99.90;;;;;;5132095;27;20455;-65
2021/04/05 04:28:15;;;;;;;33.00;18.47;;;6.80;99.90;;;;;;5132093;27;20422;-64
2021/04/05 04:30:42;;;;;;;39.13;18.57;;;6.80;99.90;;;;;;5132466;27;20450;-64
2021/04/05 04:33:09;;;;;;;39.00;20.23;;;6.90;99.90;;;;;;5132852;27;20458;-64
2021/04/05 04:35:37;;;;;;;34.07;18.00;;;6.90;99.90;;;;;;5132119;28;20450;-65
2021/04/05 04:38:07;;;;;;;33.13;16.87;;;6.90;99.90;;;;;;5131611;27;20444;-65
2021/04/05 04:40:36;;;;;;;31.50;15.93;;;7.00;99.90;;;;;;5126638;27;20448;-64
2021/04/05 04:43:04;;;;;;;31.40;17.10;;;7.00;99.90;;;;;;5126205;27;21263;-65
2021/04/05 04:45:31;;;;;;;27.70;16.10;;;7.00;99.90;;;;;;5132360;28;20945;-64
2021/04/05 04:47:58;;;;;;;34.63;17.07;;;7.00;99.90;;;;;;5132452;27;20447;-65
2021/04/05 04:50:26;;;;;;;44.37;17.90;;;7.00;99.90;;;;;;5132946;27;20461;-64
2021/04/05 04:52:53;;;;;;;30.53;15.83;;;7.00;99.90;;;;;;5134446;27;20452;-65
2021/04/05 04:55:22;;;;;;;29.50;17.23;;;7.10;99.90;;;;;;5136653;27;20802;-65
2021/04/05 04:57:48;;;;;;;31.90;17.33;;;7.10;99.90;;;;;;5136686;27;20960;-65
2021/04/05 05:00:17;;;;;;;37.60;16.93;;;7.10;99.90;;;;;;5136946;27;21037;-65
2021/04/05 05:02:45;;;;;;;33.70;18.40;;;7.00;99.90;;;;;;5136530;27;20486;-66
2021/04/05 05:05:14;;;;;;;35.70;19.57;;;7.10;99.90;;;;;;5136817;27;21017;-65
2021/04/05 05:07:41;;;;;;;31.13;17.57;;;7.10;99.90;;;;;;5136380;27;20912;-66
2021/04/05 05:10:09;;;;;;;34.50;16.57;;;7.10;99.90;;;;;;5136062;27;20539;-64
2021/04/05 05:12:38;;;;;;;34.10;17.90;;;7.10;99.90;;;;;;5136657;27;20546;-65
2021/04/05 05:15:07;;;;;;;36.23;17.47;;;7.20;99.90;;;;;;5136384;27;20508;-65
2021/04/05 05:17:33;;;;;;;36.67;18.83;;;7.20;99.90;;;;;;5131235;27;21058;-65
2021/04/05 05:20:01;;;;;;;45.17;17.70;;;7.30;99.90;;;;;;5132437;27;20947;-64
2021/04/05 05:22:29;;;;;;;36.57;18.13;;;7.20;99.90;;;;;;5127329;27;20488;-65
2021/04/05 05:24:56;;;;;;;37.57;20.67;;;7.10;99.90;;;;;;5136109;27;20444;-65
2021/04/05 05:27:24;;;;;;;34.47;18.43;;;7.10;99.90;;;;;;5135412;27;20444;-64
2021/04/05 05:29:52;;;;;;;38.50;20.73;;;7.10;99.90;;;;;;5132974;27;20508;-65
2021/04/05 05:32:19;;;;;;;31.83;19.17;;;7.10;99.90;;;;;;5136351;27;20449;-64
2021/04/05 05:34:46;;;;;;;40.00;19.60;;;7.00;99.90;;;;;;5136965;27;20550;-65
2021/04/05 05:37:13;;;;;;;40.60;21.70;;;7.00;99.90;;;;;;5135192;27;20949;-65
2021/04/05 05:39:41;;;;;;;38.53;19.27;;;7.10;99.90;;;;;;5135630;27;20541;-65
2021/04/05 05:42:17;;;;;;;42.53;19.13;;;7.20;99.90;;;;;;5133608;27;20499;-65
2021/04/05 05:44:51;;;;;;;41.30;21.50;;;7.20;99.90;;;;;;5128649;27;20459;-64
2021/04/05 05:47:27;;;;;;;40.90;22.13;;;7.10;99.90;;;;;;5129670;27;20454;-65
2021/04/05 05:50:06;;;;;;;34.67;19.63;;;7.20;99.90;;;;;;5135708;27;20459;-63
2021/04/05 05:52:51;;;;;;;35.03;19.50;;;7.10;99.90;;;;;;5135878;27;20581;-63
2021/04/05 05:55:35;;;;;;;37.23;21.03;;;7.10;99.90;;;;;;5135446;27;20444;-63
2021/04/05 05:58:08;;;;;;;35.57;19.70;;;7.20;99.90;;;;;;5135909;27;20440;-63
2021/04/05 06:00:39;;;;;;;35.23;19.53;;;7.10;99.90;;;;;;5135009;27;20444;-64
2021/04/05 06:03:21;;;;;;;35.80;19.63;;;7.20;99.90;;;;;;5134788;27;20483;-64
2021/04/05 06:05:58;;;;;;;33.83;20.40;;;7.20;99.90;;;;;;5135335;27;20456;-63
2021/04/05 06:08:33;;;;;;;37.20;19.77;;;7.20;99.90;;;;;;5135299;27;20503;-63
2021/04/05 06:11:14;;;;;;;33.20;19.03;;;7.20;99.90;;;;;;5133665;27;20852;-63
2021/04/05 06:13:51;;;;;;;41.90;20.73;;;7.20;99.90;;;;;;5130836;27;20459;-65
2021/04/05 06:16:31;;;;;;;38.90;21.03;;;7.10;99.90;;;;;;5134270;27;20466;-63
2021/04/05 06:19:21;;;;;;;31.63;18.33;;;7.10;99.90;;;;;;5131957;27;20500;-63
2021/04/05 06:21:57;;;;;;;42.03;20.40;;;7.00;99.90;;;;;;5135246;27;20844;-63
2021/04/05 06:24:28;;;;;;;39.17;20.27;;;6.90;99.90;;;;;;5132386;27;20567;-63
2021/04/05 06:26:58;;;;;;;34.20;19.20;;;6.90;99.90;;;;;;5134620;27;20580;-63
2021/04/05 06:29:32;;;;;;;37.70;21.27;;;6.90;99.90;;;;;;5134062;27;20536;-64
2021/04/05 06:32:25;;;;;;;34.73;20.93;;;6.90;99.90;;;;;;5134986;27;20463;-63
2021/04/05 06:35:16;;;;;;;39.93;23.20;;;6.90;99.90;;;;;;5134599;27;20507;-63
2021/04/05 06:37:45;;;;;;;40.83;23.63;;;6.90;99.90;;;;;;5130890;27;20458;-63
2021/04/05 06:40:16;;;;;;;44.20;23.37;;;6.90;99.90;;;;;;5134396;27;20458;-63
2021/04/05 06:43:12;;;;;;;44.53;23.47;;;6.90;99.90;;;;;;5133261;27;20980;-63
2021/04/05 06:45:56;;;;;;;41.83;23.07;;;6.90;99.90;;;;;;5109178;27;20453;-62
2021/04/05 06:48:50;;;;;;;40.97;23.00;;;6.90;99.90;;;;;;5137452;27;20530;-63
2021/04/05 06:51:37;;;;;;;42.40;22.90;;;6.90;99.90;;;;;;5132295;27;20455;-66
2021/04/05 06:54:21;;;;;;;36.27;22.60;;;6.80;99.90;;;;;;5125938;27;20596;-63
2021/04/05 06:57:02;;;;;;;38.57;22.90;;;6.80;99.90;;;;;;5124170;27;20468;-66
2021/04/05 06:59:38;;;;;;;42.37;24.47;;;6.80;99.90;;;;;;5132943;27;20448;-63
2021/04/05 07:02:39;;;;;;;40.97;23.70;;;6.70;99.90;;;;;;5128994;27;20572;-65
2021/04/05 07:05:17;;;;;;;45.97;24.57;;;6.70;99.90;;;;;;5120976;27;20837;-63
2021/04/05 07:07:56;;;;;;;43.73;24.20;;;6.70;99.90;;;;;;5123170;27;20555;-62
2021/04/05 07:10:28;;;;;;;41.70;25.37;;;6.70;99.90;;;;;;5124413;27;20551;-62
2021/04/05 07:13:00;;;;;;;41.57;25.33;;;6.60;99.90;;;;;;5124853;27;20870;-62
2021/04/05 07:15:39;;;;;;;45.47;25.13;;;6.60;99.90;;;;;;5122205;27;20471;-62
2021/04/05 07:18:24;;;;;;;44.67;25.90;;;6.60;99.90;;;;;;5122938;27;20479;-63
2021/04/05 07:21:03;;;;;;;42.27;23.43;;;6.60;99.90;;;;;;5123527;27;20460;-63
2021/04/05 07:23:46;;;;;;;43.50;27.70;;;6.60;99.90;;;;;;5128520;27;20949;-62
2021/04/05 07:26:18;;;;;;;40.50;23.63;;;6.60;99.90;;;;;;5125600;27;20475;-63
2021/04/05 07:29:01;;;;;;;41.40;26.43;;;6.60;99.90;;;;;;5130066;27;20462;-62
2021/04/05 07:31:38;;;;;;;45.27;27.20;;;6.60;99.90;;;;;;5125269;27;20523;-64
2021/04/05 07:34:19;;;;;;;49.87;28.73;;;6.60;99.90;;;;;;5124319;27;20453;-65
2021/04/05 07:36:49;;;;;;;46.53;29.23;;;6.60;99.90;;;;;;5126486;27;20448;-66
2021/04/05 07:39:27;;;;;;;55.67;29.80;;;6.60;99.90;;;;;;5123942;27;20507;-63
2021/04/05 07:42:01;;;;;;;41.03;21.67;;;6.60;99.90;;;;;;5130375;27;20481;-62
2021/04/05 07:44:37;;;;;;;30.97;16.37;;;6.50;99.90;;;;;;5124485;27;20486;-65
2021/04/05 07:47:15;;;;;;;14.80;5.20;;;6.40;99.90;;;;;;5127732;27;20562;-64
2021/04/05 07:49:48;;;;;;;14.00;4.60;;;6.10;99.90;;;;;;5122028;27;21015;-63
2021/04/05 07:52:21;;;;;;;9.10;3.60;;;6.00;99.90;;;;;;5127946;27;20554;-62
2021/04/05 07:54:50;;;;;;;12.23;4.50;;;5.90;99.90;;;;;;5123370;27;20547;-63
2021/04/05 07:57:32;;;;;;;7.70;2.60;;;5.80;99.90;;;;;;5128950;27;20523;-64
2021/04/05 08:00:08;;;;;;;6.67;2.17;;;5.70;99.90;;;;;;5118042;27;20460;-65
2021/04/05 08:02:47;;;;;;;8.80;2.57;;;5.70;99.90;;;;;;5120240;27;20837;-63
2021/04/05 08:05:35;;;;;;;7.17;2.10;;;5.50;99.90;;;;;;5127151;27;20530;-62
2021/04/05 08:08:17;;;;;;;5.80;1.70;;;5.40;99.90;;;;;;5124921;27;20863;-64
2021/04/05 08:10:56;;;;;;;7.30;1.93;;;5.30;99.90;;;;;;5127821;27;20431;-62
2021/04/05 08:13:29;;;;;;;6.37;1.33;;;5.30;99.90;;;;;;5128666;27;20456;-62
2021/04/05 08:16:08;;;;;;;7.43;2.00;;;5.30;99.90;;;;;;5124825;27;20465;-64
2021/04/05 08:18:39;;;;;;;7.17;1.70;;;5.40;99.90;;;;;;5129035;27;20846;-64
2021/04/05 08:21:10;;;;;;;6.50;1.60;;;5.40;99.90;;;;;;5126852;27;20490;-63
2021/04/05 08:23:51;;;;;;;5.93;1.33;;;5.30;99.90;;;;;;5132139;27;20423;-63
2021/04/05 08:26:29;;;;;;;8.80;1.90;;;5.40;99.90;;;;;;5124633;27;20419;-63
2021/04/05 08:29:03;;;;;;;6.27;1.90;;;5.30;99.90;;;;;;5123590;27;20444;-62
2021/04/05 08:31:37;;;;;;;8.53;2.23;;;5.40;99.90;;;;;;5116975;28;20462;-64
2021/04/05 08:34:14;;;;;;;6.60;2.70;;;5.50;99.90;;;;;;5111825;27;20467;-65
2021/04/05 08:36:55;;;;;;;10.27;3.30;;;5.50;99.90;;;;;;5125132;28;20959;-63
2021/04/05 08:39:29;;;;;;;9.20;3.07;;;5.50;99.90;;;;;;5115452;28;20450;-63
2021/04/05 08:42:08;;;;;;;11.80;2.70;;;5.50;99.90;;;;;;5121546;28;21059;-66
2021/04/05 08:44:40;;;;;;;7.47;2.07;;;5.60;99.90;;;;;;5125588;27;20528;-63
2021/04/05 08:47:12;;;;;;;6.00;1.60;;;5.50;99.90;;;;;;5112002;28;21009;-63
2021/04/05 08:49:41;;;;;;;8.60;3.10;;;5.60;99.90;;;;;;5123022;28;21038;-63
2021/04/05 08:52:09;;;;;;;7.17;1.80;;;5.60;99.90;;;;;;5123166;28;20480;-63
2021/04/05 08:54:38;;;;;;;7.93;1.90;;;5.60;99.90;;;;;;5126546;27;20828;-63
2021/04/05 08:57:11;;;;;;;9.90;2.70;;;5.60;99.90;;;;;;5123496;28;20858;-62
2021/04/05 08:59:40;;;;;;;10.63;2.50;;;5.60;99.90;;;;;;5129656;27;20977;-62
2021/04/05 09:02:18;;;;;;;6.93;2.20;;;5.60;99.90;;;;;;5124137;28;20941;-62
2021/04/05 09:04:46;;;;;;;9.23;1.60;;;5.50;99.90;;;;;;5125701;27;20443;-65
2021/04/05 09:07:21;;;;;;;8.70;1.43;;;5.30;99.90;;;;;;5123697;28;20544;-65
2021/04/05 09:09:51;;;;;;;11.40;1.70;;;5.00;99.90;;;;;;5119296;27;20468;-64
2021/04/05 09:12:20;;;;;;;10.43;1.50;;;4.80;99.90;;;;;;5124199;28;20430;-65
2021/04/05 09:15:06;;;;;;;10.90;3.37;;;4.80;99.90;;;;;;5123731;28;20464;-62
2021/04/05 09:17:49;;;;;;;10.43;1.30;;;4.70;99.90;;;;;;5127960;28;20553;-64
2021/04/05 09:20:30;;;;;;;10.30;1.40;;;4.70;99.90;;;;;;5129657;27;20479;-63
2021/04/05 09:23:08;;;;;;;10.00;1.73;;;4.80;99.90;;;;;;5130300;28;20476;-64
2021/04/05 09:25:55;;;;;;;14.17;2.70;;;4.80;99.90;;;;;;5119642;27;20879;-64
2021/04/05 09:28:52;;;;;;;11.73;2.20;;;5.00;99.90;;;;;;5118202;28;20464;-65
2021/04/05 09:31:34;;;;;;;10.33;2.37;;;5.00;99.90;;;;;;5124525;27;20491;-65
2021/04/05 09:34:21;;;;;;;11.67;2.10;;;5.10;99.90;;;;;;5118015;28;20468;-63
2021/04/05 09:37:12;;;;;;;17.83;4.20;;;5.00;99.90;;;;;;5122242;27;20452;-65
2021/04/05 09:40:06;;;;;;;10.27;2.30;;;5.00;99.90;;;;;;5108173;27;20462;-63
2021/04/05 09:42:56;;;;;;;11.80;3.13;;;4.80;99.90;;;;;;5127774;27;20455;-62
2021/04/05 09:45:31;;;;;;;11.50;2.63;;;5.10;99.90;;;;;;5122430;27;20464;-63
2021/04/05 09:48:17;;;;;;;20.03;3.37;;;5.30;99.90;;;;;;5130553;27;20976;-62
2021/04/05 09:51:10;;;;;;;14.10;4.20;;;5.50;99.90;;;;;;5124568;27;20479;-63
2021/04/05 09:53:52;;;;;;;14.10;3.77;;;5.70;99.90;;;;;;5100007;27;20449;-63
2021/04/05 09:56:23;;;;;;;15.00;3.10;;;5.60;99.90;;;;;;5126410;27;20500;-63
2021/04/05 09:58:52;;;;;;;10.40;4.23;;;5.70;99.90;;;;;;5130465;27;20979;-63
2021/04/05 10:01:23;;;;;;;15.73;3.33;;;5.80;99.90;;;;;;5124844;27;20460;-62
2021/04/05 10:03:56;;;;;;;14.37;3.53;;;6.10;99.90;;;;;;5134169;27;20486;-65
2021/04/05 10:06:25;;;;;;;16.33;3.13;;;6.10;99.90;;;;;;5129986;27;20462;-64
2021/04/05 10:08:57;;;;;;;12.13;3.20;;;6.10;99.90;;;;;;5123563;27;20451;-64
2021/04/05 10:11:27;;;;;;;9.10;2.23;;;6.20;99.90;;;;;;5129761;27;20459;-64
2021/04/05 10:13:56;;;;;;;13.00;3.40;;;6.20;99.90;;;;;;5127428;27;20484;-63
2021/04/05 10:16:25;;;;;;;10.70;2.23;;;6.30;99.90;;;;;;5130268;27;20474;-63
2021/04/05 10:18:55;;;;;;;12.53;2.57;;;6.40;99.90;;;;;;5123744;27;20860;-63
2021/04/05 10:21:23;;;;;;;8.90;2.80;;;6.50;99.90;;;;;;5134649;27;20478;-67
2021/04/05 10:23:50;;;;;;;11.67;2.47;;;6.50;99.90;;;;;;5135021;27;20457;-62
2021/04/05 10:26:18;;;;;;;11.93;3.20;;;6.20;99.90;;;;;;5125664;27;20546;-64
2021/04/05 10:28:47;;;;;;;14.17;3.17;;;6.10;99.90;;;;;;5134805;27;20508;-63
2021/04/05 10:31:17;;;;;;;9.30;1.67;;;5.90;99.90;;;;;;5134971;27;20548;-63
2021/04/05 10:33:48;;;;;;;8.60;1.67;;;6.00;99.90;;;;;;5135047;27;20451;-62
2021/04/05 10:36:21;;;;;;;7.67;1.73;;;5.90;99.90;;;;;;5134667;27;20536;-62
2021/04/05 10:38:48;;;;;;;12.70;2.37;;;6.00;99.90;;;;;;5133791;27;20444;-63
2021/04/05 10:41:18;;;;;;;8.37;1.47;;;6.10;99.90;;;;;;5134939;27;20497;-62
2021/04/05 10:43:50;;;;;;;6.60;1.23;;;6.20;99.90;;;;;;5134038;27;20421;-62
2021/04/05 10:46:18;;;;;;;6.27;1.23;;;5.60;99.90;;;;;;5131508;27;20447;-63
2021/04/05 10:48:50;;;;;;;8.90;1.00;;;4.60;99.90;;;;;;5134095;27;20544;-62
2021/04/05 10:51:21;;;;;;;6.00;1.00;;;3.90;99.90;;;;;;5135793;27;20435;-61
2021/04/05 10:53:58;;;;;;;5.40;0.80;;;3.80;99.90;;;;;;5140178;27;20426;-61
2021/04/05 10:56:26;;;;;;;6.30;0.90;;;3.80;99.90;;;;;;5130718;27;20457;-62
2021/04/05 10:58:58;;;;;;;6.63;0.93;;;3.90;99.90;;;;;;5133556;27;20524;-62
2021/04/05 11:01:25;;;;;;;8.63;1.20;;;3.90;99.90;;;;;;5133359;27;20483;-64
2021/04/05 11:03:53;;;;;;;8.33;1.23;;;4.30;99.90;;;;;;5135576;27;20424;-61
2021/04/05 11:06:22;;;;;;;5.50;0.90;;;4.80;99.90;;;;;;5134368;27;20531;-62
2021/04/05 11:08:52;;;;;;;6.40;0.90;;;5.20;99.90;;;;;;5133751;27;20533;-62
2021/04/05 11:11:23;;;;;;;5.90;1.20;;;5.40;99.90;;;;;;5134267;27;20474;-63
2021/04/05 11:13:52;;;;;;;7.50;1.30;;;5.80;99.90;;;;;;5129190;27;20456;-62
2021/04/05 11:16:21;;;;;;;6.17;1.20;;;6.40;99.90;;;;;;5124824;27;20444;-62
2021/04/05 11:18:49;;;;;;;8.83;1.40;;;6.90;99.90;;;;;;5125790;27;20428;-63
2021/04/05 11:21:22;;;;;;;8.63;1.00;;;7.70;99.90;;;;;;5129112;27;20971;-63
2021/04/05 11:23:55;;;;;;;8.07;1.40;;;7.70;99.90;;;;;;5135006;27;20546;-62
2021/04/05 11:26:25;;;;;;;6.93;1.20;;;7.20;99.90;;;;;;5134041;27;20459;-63
2021/04/05 11:28:58;;;;;;;7.90;1.33;;;6.80;99.90;;;;;;5132925;27;20451;-63
2021/04/05 11:31:25;;;;;;;7.80;1.27;;;6.60;99.90;;;;;;5132503;27;20448;-62
2021/04/05 11:33:55;;;;;;;6.93;0.97;;;7.00;99.90;;;;;;5138151;27;20463;-62
2021/04/05 11:36:23;;;;;;;9.27;1.20;;;7.20;99.90;;;;;;5141740;27;20446;-62
2021/04/05 11:38:52;;;;;;;6.70;0.97;;;7.00;99.90;;;;;;5138053;27;20996;-63
2021/04/05 11:41:26;;;;;;;9.13;1.30;;;6.80;99.90;;;;;;5144528;27;20907;-64
2021/04/05 11:43:57;;;;;;;6.47;1.10;;;6.20;99.90;;;;;;5128963;27;20470;-62
2021/04/05 11:46:29;;;;;;;7.50;1.57;;;6.00;99.90;;;;;;5131308;27;20451;-62
2021/04/05 11:49:03;;;;;;;9.47;1.37;;;5.70;99.90;;;;;;5129734;27;20528;-62
2021/04/05 11:51:37;;;;;;;7.60;1.60;;;5.50;99.90;;;;;;5132808;27;20483;-62
2021/04/05 11:54:07;;;;;;;7.90;1.30;;;5.40;99.90;;;;;;5132215;27;20443;-64
2021/04/05 11:56:36;;;;;;;12.00;2.00;;;5.40;99.90;;;;;;5133606;27;20453;-62
2021/04/05 11:59:10;;;;;;;7.57;1.60;;;5.20;99.90;;;;;;5129595;27;20455;-63
2021/04/05 12:01:42;;;;;;;9.67;1.67;;;5.10;99.90;;;;;;5129929;27;20563;-62
2021/04/05 12:04:15;;;;;;;11.63;1.70;;;4.90;99.90;;;;;;5136498;27;20477;-62
2021/04/05 12:06:48;;;;;;;11.13;1.50;;;4.70;99.90;;;;;;5132853;27;20456;-62
2021/04/05 12:09:22;;;;;;;7.00;1.30;;;4.90;99.90;;;;;;5135726;27;20441;-61
2021/04/05 12:11:52;;;;;;;9.90;1.83;;;5.50;99.90;;;;;;5132916;27;20596;-64
2021/04/05 12:14:24;;;;;;;9.73;1.50;;;6.60;99.90;;;;;;5139757;27;20446;-63
2021/04/05 12:16:52;;;;;;;9.10;1.10;;;8.20;99.90;;;;;;5150017;27;20587;-63
2021/04/05 12:19:24;;;;;;;10.60;1.70;;;10.30;99.90;;;;;;5137627;27;20441;-63
2021/04/05 12:21:53;;;;;;;7.03;1.20;;;12.20;99.90;;;;;;5146110;27;20992;-64
2021/04/05 12:24:31;;;;;;;5.50;1.30;;;14.90;99.90;;;;;;5132199;27;20537;-62
2021/04/05 12:27:01;;;;;;;8.13;1.90;;;17.50;99.90;;;;;;5128629;27;20489;-65
2021/04/05 12:29:28;;;;;;;6.77;1.80;;;18.30;90.60;;;;;;5130978;27;20524;-65
2021/04/05 12:31:57;;;;;;;6.87;1.80;;;17.20;86.90;;;;;;5130209;27;20898;-64
2021/04/05 12:34:29;;;;;;;7.67;1.90;;;16.10;87.80;;;;;;5132587;27;20449;-64
2021/04/05 12:36:57;;;;;;;6.33;1.17;;;12.80;87.00;;;;;;5130176;27;20899;-64
2021/04/05 12:39:29;;;;;;;8.63;1.00;;;10.40;93.40;;;;;;5121511;27;20437;-62
2021/04/05 12:41:57;;;;;;;9.53;1.47;;;8.20;99.90;;;;;;5128767;28;20484;-63
2021/04/05 12:44:27;;;;;;;13.47;1.10;;;6.50;99.90;;;;;;5131170;27;20507;-64
2021/04/05 12:46:54;;;;;;;6.93;0.80;;;5.10;99.90;;;;;;5128702;27;20455;-62
2021/04/05 12:49:23;;;;;;;6.13;1.30;;;6.90;99.90;;;;;;5127089;27;20458;-62
2021/04/05 12:51:54;;;;;;;4.43;0.90;;;11.00;99.90;;;;;;5131509;28;20454;-63
2021/04/05 12:54:23;;;;;;;5.20;0.80;;;14.50;99.90;;;;;;5130360;28;21020;-63
2021/04/05 12:56:52;;;;;;;11.30;1.10;;;17.30;98.60;;;;;;5130871;27;20543;-64
2021/04/05 12:59:23;;;;;;;5.50;1.20;;;17.90;91.70;;;;;;5124830;27;20449;-63
2021/04/05 13:01:53;;;;;;;5.37;1.20;;;16.00;90.90;;;;;;5132422;27;20563;-63
2021/04/05 13:04:21;;;;;;;4.90;1.20;;;15.70;83.20;;;;;;5126916;28;20945;-64
2021/04/05 13:06:56;;;;;;;4.50;1.03;;;15.70;89.60;;;;;;5127897;27;20445;-65